Aeroporto :
LOGIN :

Iscrizione | Disclaimer

   EN    FR    IT 

 










Sommario :    VFR   VFR Marginale   IFR   IFR Intensivo   IFR Molto Intensivo
Visibilità : 
Base nubi : 
>= 8 km
>= 3000ft
5 / 8 km
1000 / 3000 ft
1500m / 5 km
500 / 1000 ft
800 / 1500m
200 / 500 ft
< 800m
< 200 ft
Simboli :   Temporali  Nebbia  Neve Forte  Precipitazioni Forti  Vento > 20 kt
SIGMETs :   Varie  Temporali  Ghiacco  Turbolenza  Onda orograficha  Ceneri Vulcaniche







- Altitudine del aeroporto : 796 ft
- Codice IATA : SYT
- Carte del aeroporto


LFLN - Saint-Yan

ULTIMO METAR :
  • 252330Z AUTO 17010KT CAVOK 08/06 Q1013

METARs OBSOLETI :
  • 252300Z AUTO 17009KT 9999 FEW046 OVC130 08/06 Q1013
  • 252230Z AUTO 16007KT 9999 FEW046 OVC130 08/06 Q1012
  • 252200Z AUTO 17006KT 9999 FEW047 OVC120 08/07 Q1013 NOSIG
  • 252130Z AUTO 17005KT 150V210 CAVOK 08/07 Q1012 NOSIG
  • 252100Z AUTO 22005KT 9999 BKN047 OVC098 08/07 Q1012 NOSIG

TAF TAF LFLN
Valido dal 25 a 18 ore il 26 a 03 ore UTC


251700Z 2518/2603 16008KT 9999 SCT028
PROB30
TEMPO 2518/2519 16015G25KT 4000 SHRA SCT013TCU BKN022
BECMG 2519/2521 SCT036 BKN100
Nessun NOTAM noto per questo aeroporto.
2 SIGMETs conosciuti per la FIR Marseille (LFMM) :
 
Temporali affogati
LFMM SIGMET 25 VALID 252330/260130 LFPW
LFMM MARSEILLE FIR/UIR EMBD TS OBS WI N4345 E00530 - N4345 E00345 - N4500 E00445 - N4500 E00600 - N4345 E00530 TOP FL270 MOV E 10KT NC=
Turbolenza severa
LFMM SIGMET 24 VALID 252200/260000 LFPW
LFMM MARSEILLE FIR/UIR SEV TURB FCST WI N4615 E00700 - N4515 E00700 - N4500 E00515 - N4615 E00630 - N4615 E00700 SFC/FL140 STNR WKN=



MetMap, La meteo Aeronautica in un colpo d'occhio ! - Copyright ORBIFLY Dicembre 2007 - Disclaimer

ORBIFLY MET'MAP TEAM :

Programmazione e sviluppo : Alexandra Zaïnal
Concezione e sviluppo : Baudouin d'Aumeries
Co-Programmazione e sviluppo : Marc-Olivier Méhu
Supporto tecnico e logistico : Manuel Goepfert
Aiuto per la traduzione : Arnaldo La Scala

Contatto : metmap@orbifly.com




FONTI E CREDITI :

   NOAA